Time;durP1;ratioP1;P1;durP2;ratioP2;P2;SDS_P1;SDS_P2;PMS_P1;PMS_P2;Temp;Humidity;BMP_temperature;BMP_pressure;BME280_temperature;BME280_humidity;BME280_pressure;Samples;Min_cycle;Max_cycle;Signal;HPM_P1;HPM_P2
2023/11/20 00:01:25;;;;;;;11.80;8.00;;;;;;;-0.49;63.88;100885.70;107607;1251;97872;-61
2023/11/20 00:03:53;;;;;;;13.00;7.40;;;;;;;-0.49;63.95;100881.82;107598;1253;111818;-60
2023/11/20 00:06:22;;;;;;;13.50;7.20;;;;;;;-0.49;63.77;100888.54;107657;1252;110073;-61
2023/11/20 00:08:50;;;;;;;14.00;8.10;;;;;;;-0.51;63.89;100893.39;107632;1251;109431;-61
2023/11/20 00:11:19;;;;;;;11.60;8.10;;;;;;;-0.53;63.76;100893.27;107679;1251;98528;-61
2023/11/20 00:13:47;;;;;;;13.50;7.50;;;;;;;-0.55;63.74;100893.54;107447;1253;97750;-62
2023/11/20 00:16:15;;;;;;;14.30;8.10;;;;;;;-0.56;63.74;100896.05;107626;1251;112539;-61
2023/11/20 00:18:44;;;;;;;11.60;7.30;;;;;;;-0.54;63.72;100895.96;107653;1255;110210;-60
2023/11/20 00:21:13;;;;;;;13.20;7.90;;;;;;;-0.54;63.72;100898.93;107637;1251;108229;-62
2023/11/20 00:23:41;;;;;;;14.70;7.90;;;;;;;-0.55;63.73;100900.04;107578;1252;97859;-59
2023/11/20 00:26:11;;;;;;;11.50;7.40;;;;;;;-0.57;63.75;100896.11;107687;1253;98373;-60
2023/11/20 00:28:41;;;;;;;12.90;7.40;;;;;;;-0.59;63.82;100891.77;107614;1251;110760;-59
2023/11/20 00:31:16;;;;;;;15.00;7.60;;;;;;;-0.59;63.96;100892.27;107631;1251;109044;-60
2023/11/20 00:33:45;;;;;;;18.30;7.80;;;;;;;-0.59;64.00;100889.64;107628;1251;108596;-60
2023/11/20 00:36:13;;;;;;;12.50;7.50;;;;;;;-0.59;64.11;100887.36;107661;1251;97844;-60
2023/11/20 00:38:41;;;;;;;10.80;7.00;;;;;;;-0.61;63.84;100882.70;107655;1251;97825;-59
2023/11/20 00:41:10;;;;;;;12.50;7.40;;;;;;;-0.62;63.97;100882.52;107621;1251;110707;-61
2023/11/20 00:43:39;;;;;;;13.60;7.70;;;;;;;-0.61;64.17;100877.40;107473;1256;109666;-61
2023/11/20 00:46:07;;;;;;;11.90;8.00;;;;;;;-0.59;64.11;100879.44;107635;1251;106527;-62
2023/11/20 00:48:36;;;;;;;15.40;8.20;;;;;;;-0.60;63.77;100877.55;107606;1251;97835;-60
2023/11/20 00:51:05;;;;;;;13.80;7.60;;;;;;;-0.64;63.79;100879.10;107602;1251;97840;-62
2023/11/20 00:53:33;;;;;;;16.30;7.20;;;;;;;-0.65;63.79;100879.66;107565;1253;111528;-60
2023/11/20 00:56:01;;;;;;;14.50;8.00;;;;;;;-0.65;63.93;100880.35;107639;1252;110521;-61
2023/11/20 00:58:30;;;;;;;10.90;7.20;;;;;;;-0.65;63.70;100877.57;107429;1253;107602;-60
2023/11/20 01:00:58;;;;;;;13.70;8.30;;;;;;;-0.67;63.74;100879.92;107626;1251;97826;-61
2023/11/20 01:03:28;;;;;;;18.10;8.00;;;;;;;-0.71;63.89;100874.27;107618;1252;97947;-62
2023/11/20 01:06:00;;;;;;;12.30;7.10;;;;;;;-0.75;63.79;100873.55;107473;1252;111826;-60
2023/11/20 01:08:28;;;;;;;12.20;7.20;;;;;;;-0.76;63.93;100874.83;107600;1251;109670;-60
2023/11/20 01:10:57;;;;;;;16.80;7.50;;;;;;;-0.76;63.94;100874.13;107417;1252;108228;-61
2023/11/20 01:13:25;;;;;;;16.20;8.10;;;;;;;-0.76;64.14;100872.55;107458;1251;97816;-61
2023/11/20 01:15:54;;;;;;;16.20;8.00;;;;;;;-0.79;63.92;100872.62;107611;1251;97931;-60
2023/11/20 01:18:22;;;;;;;13.40;8.40;;;;;;;-0.83;63.93;100874.37;107579;1251;111406;-61
2023/11/20 01:20:51;;;;;;;12.70;7.40;;;;;;;-0.83;63.84;100872.96;107594;1251;110133;-62
2023/11/20 01:23:19;;;;;;;12.30;7.30;;;;;;;-0.85;63.60;100872.52;107545;1251;107698;-60
2023/11/20 01:25:47;;;;;;;12.80;7.50;;;;;;;-0.86;63.77;100874.84;107601;1251;97854;-59
2023/11/20 01:28:15;;;;;;;16.60;7.00;;;;;;;-0.85;63.77;100880.82;107592;1251;98380;-60
2023/11/20 01:30:43;;;;;;;14.00;8.20;;;;;;;-0.87;63.47;100881.57;107487;1251;112014;-61
2023/11/20 01:33:12;;;;;;;10.30;6.80;;;;;;;-0.87;63.60;100881.08;107650;1251;109328;-59
2023/11/20 01:35:47;;;;;;;13.40;7.70;;;;;;;-0.87;63.53;100881.08;107630;1251;107835;-65
2023/11/20 01:38:16;;;;;;;16.50;7.60;;;;;;;-0.92;63.11;100881.25;107490;1253;97874;-61
2023/11/20 01:40:52;;;;;;;13.20;7.50;;;;;;;-0.94;63.77;100879.92;107525;1251;97843;-60
2023/11/20 01:43:21;;;;;;;10.80;7.40;;;;;;;-1.02;63.55;100873.88;107565;1257;112256;-60
2023/11/20 01:45:57;;;;;;;12.80;7.40;;;;;;;-1.08;63.75;100870.59;107633;1251;108066;-61
2023/11/20 01:48:25;;;;;;;14.50;7.70;;;;;;;-1.13;63.79;100867.09;107605;1251;108013;-61
2023/11/20 01:50:54;;;;;;;15.20;7.70;;;;;;;-1.13;64.20;100871.13;107540;1251;97847;-60
2023/11/20 01:53:23;;;;;;;16.10;7.70;;;;;;;-1.11;64.66;100867.70;107619;1251;97714;-59
2023/11/20 01:55:51;;;;;;;12.70;8.50;;;;;;;-1.05;64.49;100868.91;107644;1252;111783;-60
2023/11/20 01:58:21;;;;;;;12.50;7.80;;;;;;;-1.01;65.01;100866.30;107620;1251;109517;-59
2023/11/20 02:00:49;;;;;;;14.30;7.80;;;;;;;-0.99;65.00;100870.23;107429;1257;107836;-59
2023/11/20 02:03:19;;;;;;;14.40;8.80;;;;;;;-0.96;65.10;100877.17;107527;1251;97820;-60
2023/11/20 02:05:48;;;;;;;16.00;9.30;;;;;;;-0.92;65.05;100872.43;107598;1251;98380;-60
2023/11/20 02:08:16;;;;;;;12.70;7.90;;;;;;;-0.94;65.19;100869.70;107509;1251;111241;-59
2023/11/20 02:10:44;;;;;;;17.80;7.90;;;;;;;-0.95;65.36;100868.33;107622;1251;109683;-60
2023/11/20 02:13:14;;;;;;;12.50;8.30;;;;;;;-0.97;65.82;100868.23;107618;1253;108147;-61
2023/11/20 02:15:43;;;;;;;11.80;7.60;;;;;;;-0.97;66.29;100867.88;107558;1251;97825;-60
2023/11/20 02:18:29;;;;;;;18.10;8.70;;;;;;;-1.01;66.59;100869.11;107562;1251;97812;-61
2023/11/20 02:20:57;;;;;;;16.70;8.20;;;;;;;-1.00;66.94;100867.65;107475;1253;110870;-61
2023/11/20 02:23:26;;;;;;;13.30;8.10;;;;;;;-0.94;66.90;100869.73;107605;1252;110118;-60
2023/11/20 02:26:03;;;;;;;12.40;7.90;;;;;;;-0.87;67.52;100868.19;107606;1252;107590;-61
2023/11/20 02:28:39;;;;;;;14.40;8.40;;;;;;;-0.83;67.63;100868.94;107419;1252;97901;-59
2023/11/20 02:31:07;;;;;;;13.60;8.30;;;;;;;-0.77;67.73;100862.52;107469;1253;97863;-59
2023/11/20 02:33:36;;;;;;;11.70;7.10;;;;;;;-0.71;67.67;100866.89;107500;1256;111474;-59
2023/11/20 02:36:05;;;;;;;14.60;8.20;;;;;;;-0.73;67.41;100869.42;107425;1251;110265;-59
2023/11/20 02:38:33;;;;;;;15.50;7.80;;;;;;;-0.74;67.46;100866.10;107616;1251;107280;-60
2023/11/20 02:41:02;;;;;;;16.50;8.30;;;;;;;-0.80;67.57;100859.65;107555;1251;97815;-58
2023/11/20 02:43:38;;;;;;;19.10;8.10;;;;;;;-0.84;67.45;100865.08;107627;1251;98380;-60
2023/11/20 02:46:07;;;;;;;20.90;9.40;;;;;;;-0.86;67.85;100869.75;107636;1254;111296;-60
2023/11/20 02:48:35;;;;;;;16.10;8.90;;;;;;;-0.91;67.50;100866.80;107600;1256;109535;-60
2023/11/20 02:51:05;;;;;;;21.10;9.30;;;;;;;-0.93;67.98;100868.63;107605;1255;107792;-60
2023/11/20 02:53:34;;;;;;;14.40;9.00;;;;;;;-0.98;68.19;100872.14;107495;1251;97923;-59
2023/11/20 02:56:05;;;;;;;17.10;8.60;;;;;;;-1.01;68.24;100866.09;107598;1251;98382;-60
2023/11/20 02:58:34;;;;;;;17.90;9.80;;;;;;;-1.07;68.55;100867.75;107612;1251;110221;-61
2023/11/20 03:01:04;;;;;;;21.80;9.30;;;;;;;-1.13;69.08;100869.19;107608;1251;109478;-61
2023/11/20 03:03:33;;;;;;;22.20;8.60;;;;;;;-1.17;69.34;100866.88;107477;1251;106615;-61
2023/11/20 03:06:02;;;;;;;15.00;8.50;;;;;;;-1.18;69.09;100863.08;107483;1251;97980;-60
2023/11/20 03:08:30;;;;;;;15.60;9.10;;;;;;;-1.17;69.22;100858.27;107662;1253;98402;-60
2023/11/20 03:10:58;;;;;;;18.10;9.50;;;;;;;-1.17;69.11;100857.57;107657;1253;112989;-59
2023/11/20 03:13:26;;;;;;;18.70;8.90;;;;;;;-1.18;69.31;100851.27;107619;1253;109676;-61
2023/11/20 03:15:56;;;;;;;12.10;8.30;;;;;;;-1.16;69.15;100845.39;107525;1251;108874;-61
2023/11/20 03:18:24;;;;;;;15.60;9.30;;;;;;;-1.13;69.11;100841.23;107472;1253;97856;-62
2023/11/20 03:20:53;;;;;;;16.30;9.10;;;;;;;-1.10;68.90;100844.63;107622;1255;97943;-60
2023/11/20 03:23:21;;;;;;;15.10;9.10;;;;;;;-1.08;69.08;100842.08;107632;1251;111348;-61
2023/11/20 03:25:51;;;;;;;19.00;9.20;;;;;;;-1.06;69.01;100836.20;107634;1253;107727;-60
2023/11/20 03:28:20;;;;;;;17.80;10.40;;;;;;;-1.02;69.04;100839.92;107554;1251;108242;-60
2023/11/20 03:30:48;;;;;;;16.60;10.30;;;;;;;-1.00;69.34;100840.88;107530;1251;97833;-60
2023/11/20 03:33:16;;;;;;;19.00;9.70;;;;;;;-0.97;69.40;100842.16;107638;1251;97740;-60
2023/11/20 03:35:45;;;;;;;15.00;9.50;;;;;;;-0.98;69.95;100837.61;107564;1251;112413;-60
2023/11/20 03:38:14;;;;;;;18.10;10.60;;;;;;;-0.99;70.44;100835.91;107639;1251;109298;-60
2023/11/20 03:40:43;;;;;;;16.30;8.90;;;;;;;-0.96;70.14;100830.71;107587;1254;108426;-60
2023/11/20 03:43:12;;;;;;;18.90;9.20;;;;;;;-0.94;70.53;100831.70;107620;1251;97829;-60
2023/11/20 03:45:41;;;;;;;17.60;10.40;;;;;;;-0.98;70.43;100826.88;107657;1251;98387;-62
2023/11/20 03:48:10;;;;;;;17.90;9.30;;;;;;;-1.00;70.51;100823.79;107602;1252;112679;-60
2023/11/20 03:50:38;;;;;;;18.60;10.20;;;;;;;-0.97;70.63;100824.77;107606;1254;108741;-59
2023/11/20 03:53:06;;;;;;;13.50;8.90;;;;;;;-0.92;70.97;100828.08;107576;1251;107583;-63
2023/11/20 03:55:35;;;;;;;23.50;10.40;;;;;;;-0.89;70.66;100825.52;107592;1251;97827;-60
2023/11/20 03:58:03;;;;;;;16.00;9.30;;;;;;;-0.87;71.14;100830.36;107603;1251;97733;-61
2023/11/20 04:00:32;;;;;;;16.70;10.00;;;;;;;-0.85;71.45;100828.34;107575;1253;110369;-61
2023/11/20 04:03:01;;;;;;;19.50;9.00;;;;;;;-0.85;71.55;100833.42;107617;1253;109949;-60
2023/11/20 04:05:29;;;;;;;19.00;9.10;;;;;;;-0.84;71.62;100832.16;107575;1252;107914;-60
2023/11/20 04:07:57;;;;;;;14.50;8.80;;;;;;;-0.79;71.69;100833.70;107620;1251;97942;-59
2023/11/20 04:10:26;;;;;;;16.00;9.20;;;;;;;-0.73;71.95;100830.30;107629;1254;97909;-60
2023/11/20 04:12:54;;;;;;;16.10;9.50;;;;;;;-0.73;71.74;100831.00;107624;1251;112708;-60
2023/11/20 04:15:22;;;;;;;17.70;9.60;;;;;;;-0.70;71.86;100826.30;107587;1253;110066;-60
2023/11/20 04:17:50;;;;;;;15.90;9.60;;;;;;;-0.64;71.95;100828.53;107569;1253;108485;-59
2023/11/20 04:20:20;;;;;;;15.30;9.30;;;;;;;-0.62;71.89;100826.73;107600;1251;97941;-59
2023/11/20 04:22:49;;;;;;;16.70;8.90;;;;;;;-0.64;71.88;100826.06;107601;1251;97717;-60
2023/11/20 04:25:17;;;;;;;16.50;9.00;;;;;;;-0.60;71.96;100824.19;107563;1252;111757;-61
2023/11/20 04:27:51;;;;;;;20.10;10.30;;;;;;;-0.56;72.07;100821.70;107606;1251;107862;-60
2023/11/20 04:30:21;;;;;;;15.30;9.50;;;;;;;-0.52;72.05;100825.08;107636;1253;106982;-61
2023/11/20 04:32:49;;;;;;;18.40;9.50;;;;;;;-0.51;72.03;100822.20;107674;1250;98058;-60
2023/11/20 04:35:17;;;;;;;18.50;9.40;;;;;;;-0.53;72.17;100823.52;107543;1253;97775;-59
2023/11/20 04:37:45;;;;;;;16.60;10.20;;;;;;;-0.54;71.96;100823.55;107605;1251;111943;-60
2023/11/20 04:40:13;;;;;;;16.50;10.90;;;;;;;-0.58;71.78;100821.05;107654;1251;109764;-60
2023/11/20 04:42:42;;;;;;;21.20;10.50;;;;;;;-0.61;71.97;100822.44;107550;1253;108215;-61
2023/11/20 04:45:10;;;;;;;17.90;10.00;;;;;;;-0.68;71.68;100822.71;107558;1253;97855;-59
2023/11/20 04:47:40;;;;;;;16.00;9.70;;;;;;;-0.75;72.10;100823.33;107492;1253;97909;-59
2023/11/20 04:50:10;;;;;;;15.70;10.70;;;;;;;-0.81;71.98;100823.58;107591;1255;110639;-60
2023/11/20 04:52:38;;;;;;;16.90;10.80;;;;;;;-0.85;71.70;100817.61;107617;1251;108177;-61
2023/11/20 04:55:08;;;;;;;17.90;11.10;;;;;;;-0.88;71.69;100814.88;107570;1251;109166;-60
2023/11/20 04:57:36;;;;;;;16.10;10.60;;;;;;;-0.90;71.77;100814.27;107598;1251;97852;-60
2023/11/20 05:00:07;;;;;;;20.10;11.40;;;;;;;-0.92;71.73;100817.34;107599;1250;97840;-61
2023/11/20 05:02:35;;;;;;;19.70;10.70;;;;;;;-0.95;71.78;100816.94;107540;1253;110602;-61
2023/11/20 05:05:07;;;;;;;17.10;10.30;;;;;;;-0.99;71.61;100815.14;107628;1253;109877;-59
2023/11/20 05:07:35;;;;;;;19.50;9.40;;;;;;;-1.02;71.87;100811.05;107602;1253;108553;-60
2023/11/20 05:10:05;;;;;;;20.40;11.80;;;;;;;-1.06;71.61;100807.34;107615;1253;97878;-60
2023/11/20 05:12:34;;;;;;;25.50;14.70;;;;;;;-1.10;71.62;100804.51;107632;1252;98483;-58
2023/11/20 05:15:04;;;;;;;24.40;12.40;;;;;;;-1.14;71.93;100801.48;107630;1251;110843;-59
2023/11/20 05:17:33;;;;;;;22.50;11.20;;;;;;;-1.17;71.74;100799.48;107626;1253;109540;-60
2023/11/20 05:20:01;;;;;;;24.00;14.30;;;;;;;-1.21;71.82;100801.77;107637;1253;107801;-61
2023/11/20 05:22:29;;;;;;;23.10;13.60;;;;;;;-1.25;71.92;100803.11;107608;1253;97846;-58
2023/11/20 05:24:58;;;;;;;30.50;15.50;;;;;;;-1.28;72.06;100805.38;107650;1251;98375;-60
2023/11/20 05:27:26;;;;;;;24.70;15.50;;;;;;;-1.31;72.37;100802.32;107563;1253;111145;-59
2023/11/20 05:29:54;;;;;;;25.60;16.10;;;;;;;-1.34;72.29;100802.08;107607;1252;109445;-61
2023/11/20 05:32:23;;;;;;;34.60;19.50;;;;;;;-1.37;72.30;100800.07;107617;1255;108259;-61
2023/11/20 05:34:51;;;;;;;30.50;16.40;;;;;;;-1.38;72.28;100797.65;107612;1253;97833;-62
2023/11/20 05:37:20;;;;;;;23.00;12.80;;;;;;;-1.39;72.23;100804.02;107591;1253;97745;-59
2023/11/20 05:39:48;;;;;;;25.60;13.80;;;;;;;-1.37;72.23;100807.29;107601;1251;110841;-60
2023/11/20 05:42:16;;;;;;;22.60;13.70;;;;;;;-1.34;72.73;100808.94;107598;1251;109368;-60
2023/11/20 05:44:46;;;;;;;27.70;15.00;;;;;;;-1.30;72.75;100812.29;107510;1253;108442;-60
2023/11/20 05:47:15;;;;;;;133.30;17.50;;;;;;;-1.23;72.99;100812.73;107668;1251;97822;-59
2023/11/20 05:49:44;;;;;;;21.60;13.00;;;;;;;-1.13;73.17;100809.87;107678;1251;98507;-60
2023/11/20 05:52:13;;;;;;;20.10;11.60;;;;;;;-1.03;73.41;100811.61;107657;1251;111866;-60
2023/11/20 05:54:43;;;;;;;21.60;13.10;;;;;;;-0.93;73.63;100813.15;107628;1252;110396;-60
2023/11/20 05:57:11;;;;;;;25.80;12.40;;;;;;;-0.81;73.72;100815.84;107488;1252;109657;-59
2023/11/20 05:59:45;;;;;;;31.40;17.00;;;;;;;-0.69;74.12;100813.93;107563;1252;98546;-61
2023/11/20 06:02:13;;;;;;;27.20;13.50;;;;;;;-0.56;74.06;100815.36;107576;1252;97713;-61
2023/11/20 06:04:41;;;;;;;22.50;13.50;;;;;;;-0.46;74.13;100805.76;107526;1251;111038;-60
2023/11/20 06:07:11;;;;;;;19.20;11.80;;;;;;;-0.34;74.33;100804.21;107568;1252;109427;-63
2023/11/20 06:09:40;;;;;;;25.00;14.20;;;;;;;-0.25;74.50;100804.02;107544;1253;107313;-59
2023/11/20 06:12:09;;;;;;;25.30;13.00;;;;;;;-0.22;74.16;100802.99;107597;1252;98059;-60
2023/11/20 06:14:37;;;;;;;18.70;11.40;;;;;;;-0.16;74.08;100803.64;107549;1251;97790;-61
2023/11/20 06:17:05;;;;;;;24.10;11.60;;;;;;;-0.07;74.37;100803.58;107557;1253;112235;-60
2023/11/20 06:19:33;;;;;;;22.90;10.90;;;;;;;0.04;74.38;100800.65;107648;1251;109865;-59
2023/11/20 06:22:01;;;;;;;28.10;12.70;;;;;;;0.15;74.46;100799.79;107533;1252;108189;-60
2023/11/20 06:24:32;;;;;;;19.70;12.20;;;;;;;0.24;73.97;100804.86;107631;1251;97909;-60
2023/11/20 06:27:00;;;;;;;16.80;10.50;;;;;;;0.30;74.05;100804.61;107505;1252;97729;-59
2023/11/20 06:29:29;;;;;;;17.70;11.70;;;;;;;0.38;73.95;100806.02;107553;1251;111778;-58
2023/11/20 06:31:57;;;;;;;21.00;11.50;;;;;;;0.46;74.06;100802.49;107511;1251;109826;-59
2023/11/20 06:34:25;;;;;;;21.90;12.40;;;;;;;0.51;73.77;100802.42;107417;1254;108618;-60
2023/11/20 06:36:54;;;;;;;16.90;11.30;;;;;;;0.52;73.54;100804.13;107497;1253;97978;-60
2023/11/20 06:39:22;;;;;;;21.20;12.20;;;;;;;0.53;73.28;100807.13;107571;1253;97793;-61
2023/11/20 06:41:51;;;;;;;20.30;12.70;;;;;;;0.52;73.10;100808.56;107585;1253;111445;-60
2023/11/20 06:44:19;;;;;;;18.10;12.50;;;;;;;0.51;72.79;100807.55;107662;1253;109882;-60
2023/11/20 06:46:52;;;;;;;23.10;12.30;;;;;;;0.53;72.96;100811.53;107601;1251;107632;-61
2023/11/20 06:49:20;;;;;;;23.10;13.30;;;;;;;0.53;72.59;100812.92;107644;1251;97832;-61
2023/11/20 06:51:49;;;;;;;23.00;11.80;;;;;;;0.52;72.46;100809.77;107520;1254;98393;-62
2023/11/20 06:54:17;;;;;;;25.40;12.10;;;;;;;0.52;72.59;100813.14;107509;1253;111892;-62
2023/11/20 06:56:46;;;;;;;21.10;12.60;;;;;;;0.54;72.44;100815.38;107649;1251;109683;-60
2023/11/20 06:59:14;;;;;;;21.80;12.60;;;;;;;0.55;72.48;100819.91;107544;1253;107442;-61
2023/11/20 07:01:46;;;;;;;26.40;12.50;;;;;;;0.56;72.36;100822.48;107628;1253;97964;-60
2023/11/20 07:04:14;;;;;;;20.20;13.20;;;;;;;0.56;72.22;100820.73;107612;1251;97711;-60
2023/11/20 07:06:43;;;;;;;20.20;11.50;;;;;;;0.56;72.22;100816.67;107523;1253;111317;-62
2023/11/20 07:09:14;;;;;;;17.30;11.70;;;;;;;0.55;72.16;100811.77;107570;1251;109740;-61
2023/11/20 07:11:43;;;;;;;17.10;12.30;;;;;;;0.54;72.25;100815.34;107600;1254;107667;-60
2023/11/20 07:14:11;;;;;;;19.70;12.80;;;;;;;0.55;72.32;100811.79;107639;1250;98011;-62
2023/11/20 07:16:41;;;;;;;20.40;12.40;;;;;;;0.57;72.19;100815.75;107607;1251;97836;-61
2023/11/20 07:19:09;;;;;;;24.00;13.50;;;;;;;0.57;72.36;100813.42;107480;1253;112154;-61
2023/11/20 07:21:43;;;;;;;25.20;14.20;;;;;;;0.59;72.34;100814.58;107568;1253;108868;-61
2023/11/20 07:24:13;;;;;;;26.70;14.20;;;;;;;0.63;72.33;100812.30;107589;1252;108552;-61
2023/11/20 07:26:41;;;;;;;27.90;16.60;;;;;;;0.67;72.41;100809.27;107608;1252;97829;-60
2023/11/20 07:29:10;;;;;;;24.00;15.90;;;;;;;0.76;72.45;100805.48;107545;1253;97944;-60
2023/11/20 07:31:38;;;;;;;26.20;15.60;;;;;;;0.88;72.76;100807.42;107536;1253;112542;-60
2023/11/20 07:34:07;;;;;;;25.50;15.20;;;;;;;0.96;72.84;100809.18;107539;1253;109578;-62
2023/11/20 07:36:36;;;;;;;30.30;16.90;;;;;;;1.02;72.92;100810.09;107616;1252;108275;-61
2023/11/20 07:39:04;;;;;;;25.80;15.70;;;;;;;1.08;72.97;100810.52;107595;1251;97707;-63
2023/11/20 07:41:32;;;;;;;26.30;14.70;;;;;;;1.17;73.20;100807.28;107607;1251;97859;-62
2023/11/20 07:44:00;;;;;;;27.00;15.70;;;;;;;1.24;73.37;100800.58;107512;1253;111167;-60
2023/11/20 07:46:30;;;;;;;21.80;14.30;;;;;;;1.26;73.10;100796.92;107439;1253;109553;-61
2023/11/20 07:48:59;;;;;;;31.00;14.20;;;;;;;1.29;73.05;100797.16;107418;1252;108156;-63
2023/11/20 07:51:27;;;;;;;25.10;13.20;;;;;;;1.31;73.10;100797.77;107457;1251;98383;-61
2023/11/20 07:53:56;;;;;;;18.50;10.30;;;;;;;1.37;72.83;100797.84;107438;1251;97858;-61
2023/11/20 07:56:24;;;;;;;18.20;10.40;;;;;;;1.41;72.64;100791.27;107421;1253;110956;-60
2023/11/20 07:58:53;;;;;;;16.50;11.00;;;;;;;1.43;72.61;100800.86;107473;1252;108644;-62
2023/11/20 08:01:23;;;;;;;19.90;11.60;;;;;;;1.51;72.69;100799.09;107406;1253;107078;-60
2023/11/20 08:03:51;;;;;;;20.00;10.70;;;;;;;1.58;72.84;100803.50;107451;1255;97854;-59
2023/11/20 08:06:20;;;;;;;24.50;11.50;;;;;;;1.62;72.07;100804.02;107492;1253;97902;-61
2023/11/20 08:08:48;;;;;;;21.10;11.70;;;;;;;1.63;71.96;100805.89;107510;1252;111880;-61
2023/11/20 08:11:17;;;;;;;17.30;9.60;;;;;;;1.68;71.92;100799.95;107501;1251;108679;-61
2023/11/20 08:13:46;;;;;;;19.80;10.70;;;;;;;1.75;71.79;100796.63;107443;1254;108979;-61
2023/11/20 08:16:14;;;;;;;23.00;11.00;;;;;;;1.80;71.21;100804.48;107400;1253;97839;-61
2023/11/20 08:18:42;;;;;;;17.80;10.80;;;;;;;1.80;70.66;100799.38;107476;1254;97825;-61
2023/11/20 08:21:11;;;;;;;17.80;11.70;;;;;;;1.80;70.57;100800.80;107529;1252;111837;-61
2023/11/20 08:23:39;;;;;;;20.00;12.40;;;;;;;1.82;70.33;100794.34;107537;1251;109407;-61
2023/11/20 08:26:08;;;;;;;19.10;12.00;;;;;;;1.84;70.34;100796.88;107525;1253;108741;-60
2023/11/20 08:28:36;;;;;;;22.00;12.70;;;;;;;1.85;70.22;100796.82;107485;1251;97838;-60
2023/11/20 08:31:05;;;;;;;20.30;12.70;;;;;;;1.86;70.10;100796.95;107458;1253;97737;-62
2023/11/20 08:33:35;;;;;;;22.20;13.10;;;;;;;1.80;69.90;100796.88;107527;1251;111455;-62
2023/11/20 08:36:04;;;;;;;19.60;12.10;;;;;;;1.72;69.94;100794.09;107578;1253;110038;-61
2023/11/20 08:38:32;;;;;;;21.10;12.60;;;;;;;1.75;70.14;100793.63;107602;1253;106951;-62
2023/11/20 08:41:00;;;;;;;22.50;12.90;;;;;;;1.82;70.44;100787.60;107573;1253;97846;-61
2023/11/20 08:43:29;;;;;;;18.60;12.50;;;;;;;1.90;70.51;100786.98;107608;1253;97809;-62
2023/11/20 08:45:58;;;;;;;20.50;13.10;;;;;;;2.00;70.64;100785.06;107577;1253;111567;-62
2023/11/20 08:48:40;;;;;;;18.90;12.50;;;;;;;2.07;70.13;100779.04;107576;1253;109990;-61
2023/11/20 08:51:09;;;;;;;19.50;12.50;;;;;;;2.15;70.32;100777.39;107580;1256;108352;-61
2023/11/20 08:53:37;;;;;;;18.20;12.00;;;;;;;2.29;70.12;100769.94;107595;1256;98514;-61
2023/11/20 08:56:05;;;;;;;17.90;12.40;;;;;;;2.38;69.44;100765.00;107646;1251;98469;-60
2023/11/20 08:58:34;;;;;;;18.80;11.80;;;;;;;2.51;69.86;100760.79;107664;1251;110981;-63
2023/11/20 09:01:04;;;;;;;18.30;11.60;;;;;;;2.64;69.82;100752.98;107612;1251;109528;-61
2023/11/20 09:03:33;;;;;;;18.20;11.30;;;;;;;2.79;70.12;100757.27;107518;1254;108093;-60
2023/11/20 09:06:02;;;;;;;18.00;11.60;;;;;;;2.92;70.24;100756.40;107580;1253;98256;-60
2023/11/20 09:08:31;;;;;;;15.10;10.50;;;;;;;3.03;70.00;100755.21;107587;1253;97672;-61
2023/11/20 09:10:59;;;;;;;23.50;10.80;;;;;;;3.08;69.53;100754.39;107619;1252;111263;-62
2023/11/20 09:13:27;;;;;;;19.80;12.00;;;;;;;3.16;69.54;100754.30;107535;1255;109580;-61
2023/11/20 09:15:56;;;;;;;18.60;12.10;;;;;;;3.32;69.70;100745.23;107601;1251;107931;-61
2023/11/20 09:18:25;;;;;;;18.60;12.70;;;;;;;3.50;69.72;100746.11;107575;1252;97838;-62
2023/11/20 09:20:53;;;;;;;19.90;12.00;;;;;;;3.65;69.58;100744.85;107594;1253;98458;-61
2023/11/20 09:23:22;;;;;;;24.40;12.10;;;;;;;3.78;69.06;100737.35;107482;1254;111050;-61
2023/11/20 09:25:50;;;;;;;15.70;11.30;;;;;;;3.83;67.98;100735.66;107557;1253;108660;-61
2023/11/20 09:28:19;;;;;;;19.10;12.20;;;;;;;3.84;67.83;100732.73;107523;1251;107804;-61
2023/11/20 09:30:47;;;;;;;20.20;11.90;;;;;;;3.88;67.31;100732.34;107589;1253;97859;-61
2023/11/20 09:33:15;;;;;;;19.60;11.60;;;;;;;3.87;66.72;100727.95;107555;1253;97738;-61
2023/11/20 09:35:43;;;;;;;20.40;13.20;;;;;;;3.88;66.84;100725.38;107567;1253;111245;-61
2023/11/20 09:38:11;;;;;;;16.80;12.10;;;;;;;3.89;66.96;100726.20;107523;1255;108531;-61
2023/11/20 09:40:42;;;;;;;23.90;15.70;;;;;;;3.92;66.68;100721.77;107583;1254;107308;-61
2023/11/20 09:43:12;;;;;;;22.40;13.70;;;;;;;3.95;66.44;100719.70;107533;1253;97939;-62
2023/11/20 09:45:41;;;;;;;21.20;13.40;;;;;;;3.96;66.09;100714.30;107651;1255;97920;-61
2023/11/20 09:48:23;;;;;;;20.50;13.90;;;;;;;3.96;66.12;100712.68;107574;1255;112223;-62
2023/11/20 09:50:51;;;;;;;20.90;13.30;;;;;;;4.05;66.32;100710.16;107620;1253;108293;-62
2023/11/20 09:53:39;;;;;;;22.20;13.10;;;;;;;4.15;66.70;100707.23;107556;1253;107408;-61
2023/11/20 09:56:09;;;;;;;23.80;14.70;;;;;;;4.22;66.61;100708.56;107557;1255;97841;-62
2023/11/20 09:58:41;;;;;;;25.30;15.20;;;;;;;4.25;66.00;100700.93;107520;1253;97799;-62
2023/11/20 10:01:12;;;;;;;22.70;13.00;;;;;;;4.24;65.14;100701.52;107521;1253;112200;-60
2023/11/20 10:03:42;;;;;;;25.30;15.30;;;;;;;4.19;65.19;100700.05;107514;1253;110227;-61
2023/11/20 10:06:19;;;;;;;25.50;15.00;;;;;;;4.20;65.49;100695.41;107605;1254;108403;-61
2023/11/20 10:08:50;;;;;;;27.30;13.90;;;;;;;4.22;65.68;100686.74;107634;1256;98066;-62
2023/11/20 10:11:21;;;;;;;22.00;13.30;;;;;;;4.27;65.68;100680.39;107648;1253;97919;-61
2023/11/20 10:13:51;;;;;;;22.80;12.90;;;;;;;4.29;65.52;100679.04;107321;1253;432238;-62
2023/11/20 10:16:22;;;;;;;23.50;13.60;;;;;;;4.28;65.48;100688.89;107546;1255;108757;-63
2023/11/20 10:18:52;;;;;;;20.80;12.80;;;;;;;4.29;65.70;100684.36;107584;1253;108222;-62
2023/11/20 10:21:21;;;;;;;23.40;13.30;;;;;;;4.28;64.61;100686.54;107549;1255;97862;-61
2023/11/20 10:23:55;;;;;;;22.30;13.30;;;;;;;4.21;64.62;100693.02;107578;1253;98373;-61
2023/11/20 10:26:24;;;;;;;22.20;14.00;;;;;;;4.19;65.06;100695.61;107696;1255;110500;-61
2023/11/20 10:28:57;;;;;;;20.30;13.50;;;;;;;4.19;64.73;100698.15;107676;1256;109825;-61
2023/11/20 10:31:31;;;;;;;23.00;14.10;;;;;;;4.09;64.68;100696.09;107577;1251;108186;-61
2023/11/20 10:34:06;;;;;;;26.40;14.20;;;;;;;4.04;64.90;100696.01;107588;1256;97828;-62
2023/11/20 10:36:37;;;;;;;29.80;14.80;;;;;;;4.01;64.71;100693.58;107610;1252;98406;-60
2023/11/20 10:39:08;;;;;;;28.70;16.10;;;;;;;3.90;64.40;100691.37;107587;1255;112246;-60
2023/11/20 10:41:41;;;;;;;31.50;18.40;;;;;;;3.84;64.57;100689.98;107644;1252;108040;-61
2023/11/20 10:44:10;;;;;;;38.90;21.20;;;;;;;3.71;64.65;100687.92;107567;1253;108043;-61
2023/11/20 10:46:43;;;;;;;40.20;18.90;;;;;;;3.69;65.54;100682.92;107648;1252;97704;-61
2023/11/20 10:49:21;;;;;;;31.90;17.20;;;;;;;3.72;65.52;100682.02;107604;1253;97723;-62
2023/11/20 10:51:55;;;;;;;29.20;18.50;;;;;;;3.75;65.81;100682.36;107578;1253;111951;-61
2023/11/20 10:54:33;;;;;;;37.60;19.40;;;;;;;3.78;65.13;100684.83;107485;1254;109686;-61
2023/11/20 10:57:03;;;;;;;40.20;22.50;;;;;;;3.78;65.22;100689.51;107582;1253;107759;-62
2023/11/20 10:59:39;;;;;;;38.50;20.10;;;;;;;3.72;65.17;100692.67;107636;1255;97919;-61
2023/11/20 11:02:17;;;;;;;33.00;18.80;;;;;;;3.69;65.73;100685.95;107574;1254;97752;-62
2023/11/20 11:04:48;;;;;;;29.00;17.80;;;;;;;3.71;65.91;100687.96;107584;1256;110972;-60
2023/11/20 11:07:21;;;;;;;35.40;18.60;;;;;;;3.71;65.92;100687.60;107564;1255;109414;-62
2023/11/20 11:09:51;;;;;;;44.30;17.70;;;;;;;3.73;66.02;100690.48;107581;1255;108603;-61
2023/11/20 11:12:21;;;;;;;32.60;18.70;;;;;;;3.72;66.19;100689.98;107574;1256;97926;-60
2023/11/20 11:14:50;;;;;;;31.20;18.20;;;;;;;3.77;66.41;100686.48;107595;1256;97702;-61